createdAt,value
2018-02-19T00:00:21.853Z,80.38
2018-02-19T00:02:50.778Z,82.02
2018-02-19T00:05:19.881Z,80.11
2018-02-19T00:07:49.262Z,81.66
2018-02-19T00:10:18.406Z,81.38
2018-02-19T00:12:47.449Z,81.47
2018-02-19T00:15:16.435Z,82.56
2018-02-19T00:17:45.348Z,82.80
2018-02-19T00:20:14.665Z,80.61
2018-02-19T00:22:44.134Z,81.53
2018-02-19T00:25:13.555Z,79.95
2018-02-19T00:27:42.627Z,80.42
2018-02-19T00:30:12.045Z,80.23
2018-02-19T00:32:41.246Z,81.77
2018-02-19T00:35:10.591Z,81.50
2018-02-19T00:37:40.856Z,82.43
2018-02-19T00:40:09.906Z,81.56
2018-02-19T00:42:39.155Z,82.83
2018-02-19T00:45:08.267Z,82.62
2018-02-19T00:47:37.449Z,82.46
2018-02-19T00:50:06.550Z,81.27
2018-02-19T00:52:35.703Z,82.24
2018-02-19T00:55:05.150Z,83.74
2018-02-19T00:57:34.336Z,83.00
2018-02-19T01:00:03.603Z,82.92
2018-02-19T01:02:33.048Z,82.61
2018-02-19T01:05:03.026Z,82.11
2018-02-19T01:07:32.507Z,81.04
2018-02-19T01:10:01.573Z,82.32
2018-02-19T01:12:30.674Z,81.57
2018-02-19T01:14:59.701Z,82.35
2018-02-19T01:17:29.270Z,82.12
2018-02-19T01:19:58.290Z,82.83
2018-02-19T01:22:27.283Z,82.73
2018-02-19T01:24:56.344Z,79.32
2018-02-19T01:27:25.436Z,82.03
2018-02-19T01:29:54.877Z,82.66
2018-02-19T01:32:24.313Z,81.44
2018-02-19T01:34:53.281Z,80.80
2018-02-19T01:37:22.643Z,80.58
2018-02-19T01:39:51.640Z,80.54
2018-02-19T01:42:20.907Z,81.43
2018-02-19T01:44:50.154Z,81.24
2018-02-19T01:47:19.159Z,81.45
2018-02-19T01:49:59.553Z,82.63
2018-02-19T01:52:28.925Z,82.48
2018-02-19T01:54:58.508Z,81.62
2018-02-19T01:57:27.405Z,81.98
2018-02-19T01:59:56.858Z,81.13
2018-02-19T02:02:26.512Z,80.73
2018-02-19T02:04:55.674Z,80.22
2018-02-19T02:07:24.746Z,81.04
2018-02-19T02:09:54.233Z,80.68
2018-02-19T02:12:24.118Z,80.52
2018-02-19T02:14:53.653Z,80.73
2018-02-19T02:17:23.031Z,80.57
2018-02-19T02:19:52.423Z,79.33
2018-02-19T02:22:21.309Z,79.45
2018-02-19T02:24:50.366Z,78.50
2018-02-19T02:27:19.411Z,79.08
2018-02-19T02:29:48.605Z,78.68
2018-02-19T02:32:18.011Z,79.32
2018-02-19T02:34:47.200Z,80.40
2018-02-19T02:37:16.245Z,78.77
2018-02-19T02:39:45.534Z,79.38
2018-02-19T02:42:14.669Z,80.07
2018-02-19T02:44:43.975Z,79.98
2018-02-19T02:47:13.302Z,79.08
2018-02-19T02:49:42.498Z,78.38
2018-02-19T02:52:12.377Z,79.65
2018-02-19T02:54:41.928Z,80.13
2018-02-19T02:57:11.094Z,78.89
2018-02-19T02:59:40.014Z,79.42
2018-02-19T03:02:09.379Z,78.94
2018-02-19T03:04:38.507Z,78.57
2018-02-19T03:07:07.641Z,79.24
2018-02-19T03:09:37.212Z,78.72
2018-02-19T03:12:06.442Z,78.07
2018-02-19T03:14:35.538Z,78.56
2018-02-19T03:17:04.807Z,78.69
2018-02-19T03:19:34.525Z,78.44
2018-02-19T03:22:03.908Z,79.15
2018-02-19T03:24:33.069Z,78.25
2018-02-19T03:27:02.277Z,78.23
2018-02-19T03:29:31.616Z,79.16
2018-02-19T03:32:00.706Z,78.48
2018-02-19T03:34:30.105Z,80.06
2018-02-19T03:36:59.402Z,79.31
2018-02-19T03:39:28.806Z,78.56
2018-02-19T03:41:58.017Z,79.54
2018-02-19T03:44:27.223Z,79.66
2018-02-19T03:46:56.927Z,80.14
2018-02-19T03:49:26.337Z,79.23
2018-02-19T03:51:55.679Z,78.08
2018-02-19T03:54:25.168Z,79.58
2018-02-19T03:56:54.475Z,80.44
2018-02-19T03:59:23.828Z,80.89
2018-02-19T04:01:52.810Z,80.52
2018-02-19T04:04:21.902Z,79.06
2018-02-19T04:06:51.057Z,78.93
2018-02-19T04:09:20.090Z,80.34
2018-02-19T04:11:49.082Z,80.45
2018-02-19T04:14:18.627Z,79.75
2018-02-19T04:16:48.059Z,80.47
2018-02-19T04:19:17.314Z,79.42
2018-02-19T04:21:46.560Z,78.17
2018-02-19T04:24:15.430Z,78.60
2018-02-19T04:26:44.645Z,78.20
2018-02-19T04:29:14.013Z,78.94
2018-02-19T04:31:42.845Z,77.96
2018-02-19T04:34:11.845Z,78.00
2018-02-19T04:36:41.282Z,78.47
2018-02-19T04:39:10.683Z,78.46
2018-02-19T04:41:39.858Z,77.41
2018-02-19T04:44:09.998Z,78.34
2018-02-19T04:46:39.266Z,77.62
2018-02-19T04:49:08.896Z,76.72
2018-02-19T04:51:38.341Z,76.23
2018-02-19T04:54:07.745Z,77.07
2018-02-19T04:56:36.922Z,77.12
2018-02-19T04:59:06.098Z,77.64
2018-02-19T05:01:35.748Z,77.88
2018-02-19T05:04:05.129Z,77.40
2018-02-19T05:06:34.082Z,77.61
2018-02-19T05:09:03.207Z,77.95
2018-02-19T05:11:32.378Z,78.79
2018-02-19T05:14:01.724Z,78.55
2018-02-19T05:16:31.134Z,78.46
2018-02-19T05:19:00.294Z,78.37
2018-02-19T05:21:29.483Z,78.56
2018-02-19T05:23:58.461Z,78.59
2018-02-19T05:26:27.819Z,77.63
2018-02-19T05:28:56.974Z,78.83
2018-02-19T05:31:25.898Z,79.40
2018-02-19T05:33:55.215Z,79.59
2018-02-19T05:36:24.342Z,78.34
2018-02-19T05:38:53.611Z,78.39
2018-02-19T05:41:23.008Z,78.25
2018-02-19T05:43:52.001Z,79.09
2018-02-19T05:46:21.410Z,78.07
2018-02-19T05:48:50.437Z,77.90
2018-02-19T05:51:19.811Z,78.78
2018-02-19T05:53:49.148Z,77.65
2018-02-19T05:56:18.518Z,78.92
2018-02-19T05:58:47.903Z,77.65
2018-02-19T06:01:17.349Z,77.53
2018-02-19T06:03:47.094Z,77.78
2018-02-19T06:06:16.533Z,77.04
2018-02-19T06:08:45.823Z,77.61
2018-02-19T06:11:15.655Z,77.86
2018-02-19T06:13:44.770Z,77.71
2018-02-19T06:16:14.078Z,77.76
2018-02-19T06:18:43.279Z,75.62
2018-02-19T06:21:13.443Z,76.34
2018-02-19T06:23:42.907Z,77.85
2018-02-19T06:26:12.462Z,76.11
2018-02-19T06:28:41.671Z,76.04
2018-02-19T06:31:10.710Z,78.15
2018-02-19T06:33:39.870Z,78.02
2018-02-19T06:36:08.818Z,76.71
2018-02-19T06:38:37.885Z,77.91
2018-02-19T06:41:07.127Z,77.48
2018-02-19T06:43:36.182Z,76.80
2018-02-19T06:46:05.197Z,77.99
2018-02-19T06:48:34.849Z,76.79
2018-02-19T06:51:03.981Z,77.67
2018-02-19T06:53:33.306Z,77.69
2018-02-19T06:56:02.654Z,78.35
2018-02-19T06:58:31.875Z,77.87
2018-02-19T07:01:01.133Z,77.20
2018-02-19T07:03:30.382Z,78.60
2018-02-19T07:05:59.649Z,77.29
2018-02-19T07:08:28.894Z,79.07
2018-02-19T07:10:58.032Z,78.23
2018-02-19T07:13:27.339Z,77.92
2018-02-19T07:15:56.487Z,76.90
2018-02-19T07:18:25.779Z,78.42
2018-02-19T07:20:54.966Z,77.59
2018-02-19T07:23:23.965Z,76.34
2018-02-19T07:25:53.344Z,77.58
2018-02-19T07:28:22.738Z,77.70
2018-02-19T07:30:51.987Z,77.52
2018-02-19T07:33:21.078Z,77.58
2018-02-19T07:35:50.562Z,78.04
2018-02-19T07:38:19.593Z,75.84
2018-02-19T07:40:49.042Z,76.75
2018-02-19T07:43:18.347Z,76.40
2018-02-19T07:45:47.849Z,78.24
2018-02-19T07:48:17.144Z,76.87
2018-02-19T07:50:46.339Z,76.55
2018-02-19T07:53:15.729Z,76.67
2018-02-19T07:55:45.345Z,76.13
2018-02-19T07:58:14.643Z,77.31
2018-02-19T08:00:43.779Z,77.26
2018-02-19T08:03:13.263Z,77.55
2018-02-19T08:05:42.458Z,75.82
2018-02-19T08:08:11.799Z,76.91
2018-02-19T08:10:41.267Z,75.08
2018-02-19T08:13:10.446Z,75.69
2018-02-19T08:15:39.394Z,76.31
2018-02-19T08:18:08.649Z,77.09
2018-02-19T08:20:37.747Z,76.17
2018-02-19T08:23:06.769Z,75.30
2018-02-19T08:25:36.047Z,76.18
2018-02-19T08:28:05.273Z,75.37
2018-02-19T08:30:34.317Z,76.64
2018-02-19T08:33:04.441Z,76.42
2018-02-19T08:35:33.686Z,77.65
2018-02-19T08:38:03.249Z,77.98
2018-02-19T08:40:32.606Z,76.49
2018-02-19T08:43:01.826Z,76.63
2018-02-19T08:45:30.842Z,77.44
2018-02-19T08:48:00.209Z,77.35
2018-02-19T08:50:29.166Z,78.19
2018-02-19T08:52:58.263Z,79.16
2018-02-19T08:55:27.754Z,78.88
2018-02-19T08:57:57.161Z,79.46
2018-02-19T09:00:26.503Z,79.07
2018-02-19T09:02:55.559Z,80.02
2018-02-19T09:05:24.730Z,78.34
2018-02-19T09:07:53.926Z,78.55
2018-02-19T09:10:23.348Z,78.96
2018-02-19T09:12:52.635Z,79.55
2018-02-19T09:15:22.047Z,78.83
2018-02-19T09:17:51.361Z,79.37
2018-02-19T09:20:20.376Z,78.68
2018-02-19T09:22:49.631Z,79.43
2018-02-19T09:25:18.882Z,79.87
2018-02-19T09:27:48.359Z,79.75
2018-02-19T09:30:17.511Z,80.33
2018-02-19T09:32:46.909Z,81.05
2018-02-19T09:35:16.077Z,81.32
2018-02-19T09:37:45.255Z,82.82
2018-02-19T09:40:14.138Z,82.12
2018-02-19T09:42:43.641Z,82.77
2018-02-19T09:45:12.817Z,86.31
2018-02-19T09:47:41.965Z,86.59
2018-02-19T09:50:10.987Z,87.08
2018-02-19T09:52:40.129Z,88.64
2018-02-19T09:55:09.182Z,89.22
2018-02-19T09:57:38.792Z,89.10
2018-02-19T10:00:07.934Z,90.24
2018-02-19T10:02:37.398Z,89.58
2018-02-19T10:05:06.358Z,89.41
2018-02-19T10:07:35.783Z,89.50
2018-02-19T10:10:05.065Z,90.94
2018-02-19T10:12:34.168Z,90.58
2018-02-19T10:15:03.547Z,90.40
2018-02-19T10:17:32.546Z,88.38
2018-02-19T10:20:02.010Z,90.24
2018-02-19T10:22:31.049Z,90.59
2018-02-19T10:25:00.120Z,90.70
2018-02-19T10:27:29.214Z,90.84
2018-02-19T10:29:58.357Z,91.25
2018-02-19T10:32:27.908Z,90.05
2018-02-19T10:34:57.078Z,91.05
2018-02-19T10:37:26.604Z,90.63
2018-02-19T10:39:55.730Z,90.81
2018-02-19T10:42:24.750Z,90.63
2018-02-19T10:44:53.693Z,90.59
2018-02-19T10:47:22.744Z,91.00
2018-02-19T10:49:52.411Z,90.17
2018-02-19T10:52:21.330Z,88.09
2018-02-19T10:54:50.633Z,89.02
2018-02-19T10:57:20.136Z,89.15
2018-02-19T10:59:49.393Z,90.01
2018-02-19T11:02:18.304Z,90.65
2018-02-19T11:04:47.747Z,89.96
2018-02-19T11:07:17.042Z,89.29
2018-02-19T11:09:45.962Z,90.11
2018-02-19T11:12:15.239Z,89.49
2018-02-19T11:14:44.334Z,90.32
2018-02-19T11:17:13.652Z,89.25
2018-02-19T11:19:43.318Z,89.47
2018-02-19T11:22:12.230Z,88.42
2018-02-19T11:24:41.294Z,87.87
2018-02-19T11:27:10.732Z,87.28
2018-02-19T11:29:39.762Z,87.19
2018-02-19T11:32:09.050Z,86.77
2018-02-19T11:34:38.388Z,86.85
2018-02-19T11:37:07.354Z,86.76
2018-02-19T11:39:36.532Z,85.84
2018-02-19T11:42:05.564Z,84.59
2018-02-19T11:44:34.848Z,84.64
2018-02-19T11:47:03.907Z,83.95
2018-02-19T11:49:33.170Z,84.90
2018-02-19T11:52:02.376Z,83.84
2018-02-19T11:54:31.759Z,83.68
2018-02-19T11:57:00.863Z,85.18
2018-02-19T11:59:30.066Z,84.50
2018-02-19T12:01:59.247Z,83.65
2018-02-19T12:04:28.622Z,83.76
2018-02-19T12:06:57.723Z,84.26
2018-02-19T12:09:26.818Z,84.10
2018-02-19T12:11:55.943Z,84.10
2018-02-19T12:14:25.171Z,83.00
2018-02-19T12:16:54.082Z,83.51
2018-02-19T12:19:23.027Z,84.33
2018-02-19T12:21:52.267Z,84.09
2018-02-19T12:24:21.370Z,82.49
2018-02-19T12:26:51.172Z,81.97
2018-02-19T12:29:20.242Z,81.74
2018-02-19T12:31:49.698Z,82.55
2018-02-19T12:34:18.764Z,82.59
2018-02-19T12:36:48.068Z,81.54
2018-02-19T12:39:17.355Z,81.96
2018-02-19T12:41:46.616Z,81.13
2018-02-19T12:44:15.551Z,82.02
2018-02-19T12:46:44.682Z,81.10
2018-02-19T12:49:13.955Z,78.42
2018-02-19T12:51:43.040Z,79.46
2018-02-19T12:54:12.435Z,79.03
2018-02-19T12:56:41.578Z,80.21
2018-02-19T12:59:10.699Z,81.63
2018-02-19T13:01:39.900Z,81.73
2018-02-19T13:04:09.243Z,82.09
2018-02-19T13:06:38.303Z,82.57
2018-02-19T13:09:07.399Z,82.58
2018-02-19T13:11:36.623Z,83.07
2018-02-19T13:14:05.957Z,83.91
2018-02-19T13:16:35.066Z,85.52
2018-02-19T13:19:03.976Z,85.58
2018-02-19T13:21:33.406Z,87.36
2018-02-19T13:24:02.950Z,87.72
2018-02-19T13:26:32.029Z,88.08
2018-02-19T13:29:01.392Z,87.84
2018-02-19T13:31:30.404Z,89.19
2018-02-19T13:33:59.367Z,90.42
2018-02-19T13:36:28.480Z,91.72
2018-02-19T13:38:57.589Z,92.77
2018-02-19T13:41:26.534Z,91.87
2018-02-19T13:43:55.587Z,92.06
2018-02-19T13:46:24.499Z,92.31
2018-02-19T13:48:53.954Z,92.90
2018-02-19T13:51:23.497Z,93.39
2018-02-19T13:53:52.525Z,92.70
2018-02-19T13:56:21.713Z,93.04
2018-02-19T13:58:51.127Z,93.37
2018-02-19T14:01:20.227Z,93.37
2018-02-19T14:03:49.286Z,92.74
2018-02-19T14:06:19.215Z,92.86
2018-02-19T14:08:48.401Z,92.84
2018-02-19T14:11:17.870Z,93.15
2018-02-19T14:13:47.020Z,93.17
2018-02-19T14:16:15.950Z,92.62
2018-02-19T14:18:44.827Z,92.69
2018-02-19T14:21:13.842Z,93.34
2018-02-19T14:23:42.827Z,92.89
2018-02-19T14:26:12.171Z,93.15
2018-02-19T14:28:41.251Z,92.68
2018-02-19T14:31:10.429Z,92.56
2018-02-19T14:33:39.570Z,91.71
2018-02-19T14:36:08.790Z,92.27
2018-02-19T14:38:38.103Z,90.25
2018-02-19T14:41:07.022Z,88.78
2018-02-19T14:43:36.011Z,88.08
2018-02-19T14:46:05.009Z,88.18
2018-02-19T14:48:34.531Z,90.20
2018-02-19T14:51:03.397Z,91.25
2018-02-19T14:53:32.791Z,91.78
2018-02-19T14:56:02.411Z,91.79
2018-02-19T14:58:32.515Z,92.17
2018-02-19T15:01:01.499Z,92.65
2018-02-19T15:03:30.695Z,92.14
2018-02-19T15:05:59.946Z,92.54
2018-02-19T15:08:29.225Z,92.02
2018-02-19T15:10:58.612Z,92.99
2018-02-19T15:16:02.880Z,92.47
2018-02-19T15:18:32.351Z,92.74
2018-02-19T15:21:01.499Z,93.79
2018-02-19T15:23:30.577Z,93.05
2018-02-19T15:25:59.747Z,93.10
2018-02-19T15:28:28.926Z,93.45
2018-02-19T15:30:57.969Z,93.50
2018-02-19T15:33:27.018Z,93.63
2018-02-19T15:35:56.103Z,93.15
2018-02-19T15:38:25.193Z,93.26
2018-02-19T15:40:54.183Z,92.54
2018-02-19T15:43:23.543Z,94.22
2018-02-19T15:45:52.782Z,93.00
2018-02-19T15:48:21.846Z,93.89
2018-02-19T15:50:50.990Z,93.18
2018-02-19T15:53:20.103Z,93.01
2018-02-19T15:55:49.354Z,92.74
2018-02-19T15:58:18.361Z,92.59
2018-02-19T16:00:47.444Z,92.07
2018-02-19T16:03:16.360Z,92.32
2018-02-19T16:05:45.549Z,91.71
2018-02-19T16:08:14.530Z,92.18
2018-02-19T16:10:43.455Z,91.77
2018-02-19T16:13:12.499Z,91.53
2018-02-19T16:15:41.651Z,91.84
2018-02-19T16:18:10.634Z,92.01
2018-02-19T16:20:40.566Z,91.73
2018-02-19T16:23:10.180Z,91.33
2018-02-19T16:25:39.271Z,92.31
2018-02-19T16:28:08.397Z,91.66
2018-02-19T16:30:37.558Z,91.50
2018-02-19T16:33:06.504Z,92.36
2018-02-19T16:35:35.764Z,91.77
2018-02-19T16:38:04.922Z,92.19
2018-02-19T16:40:33.825Z,92.62
2018-02-19T16:43:03.402Z,92.02
2018-02-19T16:45:33.057Z,91.62
2018-02-19T16:48:03.505Z,91.90
2018-02-19T16:50:33.160Z,91.13
2018-02-19T16:53:02.570Z,90.27
2018-02-19T16:55:32.052Z,91.04
2018-02-19T16:58:01.659Z,90.83
2018-02-19T17:00:31.030Z,90.22
2018-02-19T17:03:00.325Z,90.59
2018-02-19T17:05:29.385Z,91.27
2018-02-19T17:07:58.360Z,90.27
2018-02-19T17:10:27.953Z,90.25
2018-02-19T17:12:57.206Z,89.96
2018-02-19T17:15:26.426Z,89.23
2018-02-19T17:17:55.458Z,89.44
2018-02-19T17:20:24.467Z,89.54
2018-02-19T17:22:54.075Z,88.93
2018-02-19T17:25:23.038Z,88.58
2018-02-19T17:27:52.233Z,89.32
2018-02-19T17:30:21.441Z,89.66
2018-02-19T17:32:50.502Z,89.57
2018-02-19T17:35:19.845Z,89.19
2018-02-19T17:37:49.006Z,89.07
2018-02-19T17:40:18.010Z,88.71
2018-02-19T17:42:47.222Z,88.70
2018-02-19T17:45:16.771Z,88.98
2018-02-19T17:47:46.017Z,89.21
2018-02-19T17:50:15.092Z,88.64
2018-02-19T17:52:44.440Z,88.15
2018-02-19T17:55:13.918Z,88.05
2018-02-19T17:57:43.514Z,87.97
2018-02-19T18:00:12.928Z,88.68
2018-02-19T18:02:42.175Z,88.01
2018-02-19T18:05:11.727Z,88.26
2018-02-19T18:07:40.981Z,87.93
2018-02-19T18:10:10.136Z,87.89
2018-02-19T18:12:39.686Z,87.85
2018-02-19T18:15:08.794Z,87.34
2018-02-19T18:17:38.039Z,87.11
2018-02-19T18:20:09.665Z,86.52
2018-02-19T18:22:38.848Z,87.15
2018-02-19T18:25:08.103Z,85.87
2018-02-19T18:27:37.154Z,86.82
2018-02-19T18:30:06.171Z,86.60
2018-02-19T18:32:35.342Z,86.83
2018-02-19T18:35:04.331Z,87.40
2018-02-19T18:37:33.279Z,86.68
2018-02-19T18:40:02.932Z,86.29
2018-02-19T18:42:32.170Z,87.04
2018-02-19T18:45:01.419Z,86.60
2018-02-19T18:47:30.488Z,86.30
2018-02-19T18:49:59.693Z,86.50
2018-02-19T18:52:28.917Z,86.84
2018-02-19T18:54:58.191Z,87.10
2018-02-19T18:57:27.340Z,86.63
2018-02-19T18:59:56.449Z,87.51
2018-02-19T19:02:25.385Z,86.63
2018-02-19T19:04:54.219Z,86.22
2018-02-19T19:07:34.666Z,85.92
2018-02-19T19:10:15.206Z,85.24
2018-02-19T19:12:43.937Z,86.04
2018-02-19T19:15:13.313Z,86.55
2018-02-19T19:17:42.759Z,85.67
2018-02-19T19:20:11.978Z,85.80
2018-02-19T19:22:41.250Z,86.03
2018-02-19T19:25:10.158Z,86.01
2018-02-19T19:27:39.508Z,86.05
2018-02-19T19:30:08.812Z,85.67
2018-02-19T19:32:38.106Z,86.41
2018-02-19T19:35:07.410Z,86.11
2018-02-19T19:37:36.660Z,86.53
2018-02-19T19:40:05.842Z,85.74
2018-02-19T19:42:35.035Z,86.25
2018-02-19T19:45:04.182Z,86.45
2018-02-19T19:47:33.640Z,86.78
2018-02-19T19:50:03.006Z,87.24
2018-02-19T19:52:32.258Z,87.04
2018-02-19T19:55:01.326Z,86.56
2018-02-19T19:57:30.777Z,86.52
2018-02-19T19:59:59.846Z,87.06
2018-02-19T20:02:28.929Z,87.73
2018-02-19T20:04:58.066Z,87.25
2018-02-19T20:07:27.226Z,87.60
2018-02-19T20:09:56.259Z,87.65
2018-02-19T20:12:25.407Z,87.11
2018-02-19T20:14:54.645Z,86.23
2018-02-19T20:17:23.715Z,87.28
2018-02-19T20:19:52.772Z,87.78
2018-02-19T20:22:22.275Z,87.10
2018-02-19T20:24:51.361Z,86.81
2018-02-19T20:27:20.582Z,86.60
2018-02-19T20:29:49.593Z,87.11
2018-02-19T20:32:18.722Z,86.89
2018-02-19T20:34:47.828Z,87.72
2018-02-19T20:37:17.063Z,87.45
2018-02-19T20:39:46.176Z,87.53
2018-02-19T20:42:15.329Z,87.33
2018-02-19T20:44:44.478Z,87.10
2018-02-19T20:47:13.778Z,87.03
2018-02-19T20:49:43.177Z,87.80
2018-02-19T20:52:12.831Z,87.14
2018-02-19T20:54:42.237Z,86.73
2018-02-19T20:57:11.619Z,86.21
2018-02-19T20:59:40.988Z,86.92
2018-02-19T21:02:10.163Z,87.29
2018-02-19T21:04:39.254Z,86.95
2018-02-19T21:07:08.305Z,86.97
2018-02-19T21:09:37.305Z,87.33
2018-02-19T21:12:06.350Z,86.10
2018-02-19T21:14:35.386Z,85.97
2018-02-19T21:17:04.734Z,85.95
2018-02-19T21:19:33.942Z,86.55
2018-02-19T21:22:03.233Z,86.77
2018-02-19T21:24:32.637Z,85.59
2018-02-19T21:27:01.766Z,85.98
2018-02-19T21:29:31.548Z,85.22
2018-02-19T21:32:00.414Z,85.97
2018-02-19T21:34:29.301Z,85.29
2018-02-19T21:36:58.273Z,85.13
2018-02-19T21:39:27.328Z,84.78
2018-02-19T21:41:56.614Z,84.31
2018-02-19T21:44:25.717Z,85.28
2018-02-19T21:46:54.800Z,85.68
2018-02-19T21:49:23.772Z,85.26
2018-02-19T21:51:52.894Z,86.88
2018-02-19T21:54:21.921Z,85.13
2018-02-19T21:56:50.974Z,84.64
2018-02-19T21:59:20.511Z,84.32
2018-02-19T22:01:49.883Z,84.80
2018-02-19T22:04:19.329Z,85.15
2018-02-19T22:06:48.494Z,85.90
2018-02-19T22:09:17.921Z,85.27
2018-02-19T22:11:46.758Z,85.65
2018-02-19T22:14:15.679Z,85.33
2018-02-19T22:16:45.121Z,85.50
2018-02-19T22:19:14.437Z,85.96
2018-02-19T22:21:43.617Z,85.22
2018-02-19T22:24:13.200Z,85.21
2018-02-19T22:26:42.611Z,85.08
2018-02-19T22:29:11.617Z,85.32
2018-02-19T22:31:40.626Z,83.57
2018-02-19T22:34:09.458Z,85.65
2018-02-19T22:36:38.521Z,84.71
2018-02-19T22:39:07.693Z,84.79
2018-02-19T22:41:37.483Z,84.98
2018-02-19T22:44:06.511Z,85.09
2018-02-19T22:46:35.701Z,83.74
2018-02-19T22:49:05.214Z,85.01
2018-02-19T22:51:34.310Z,85.00
2018-02-19T22:54:03.555Z,85.62
2018-02-19T22:56:32.641Z,85.87
2018-02-19T22:59:01.790Z,84.50
2018-02-19T23:01:30.960Z,86.47
2018-02-19T23:04:00.347Z,85.50
2018-02-19T23:06:29.449Z,85.55
2018-02-19T23:08:59.277Z,85.78
2018-02-19T23:11:28.581Z,85.15
2018-02-19T23:13:57.694Z,85.34
2018-02-19T23:16:26.897Z,85.52
2018-02-19T23:18:56.173Z,84.84
2018-02-19T23:21:26.316Z,84.67
2018-02-19T23:23:55.512Z,84.19
2018-02-19T23:26:24.609Z,84.62
2018-02-19T23:28:53.693Z,84.05
2018-02-19T23:31:22.697Z,84.43
2018-02-19T23:33:51.897Z,84.93
2018-02-19T23:36:22.075Z,84.69
2018-02-19T23:38:51.522Z,86.53
2018-02-19T23:41:20.688Z,86.15
2018-02-19T23:43:49.927Z,86.34
2018-02-19T23:46:19.110Z,86.32
2018-02-19T23:48:48.379Z,85.71
2018-02-19T23:51:17.372Z,86.14
2018-02-19T23:53:46.574Z,86.41
2018-02-19T23:56:15.866Z,87.22
2018-02-19T23:58:45.238Z,86.89
